Whitchurch-Stouffville, Canada
Current Conditions -  °F | °C
As of 6:00 PM on Monday 22 Dec 2014 (Local Time) from CYKZ Reporting Station
Broken Clouds Broken Clouds  
Wind Chill: 26°   Ceiling: 1400
Heat Index: 32°   Visibility: 12mi
Dew Point: 27°   Wind: 7mph
Humidity: 80%   Direction: 90°E
Pressure: 30.09"   Gusts: NA
Location:  43.97°N, 79.25°W
Report Text: CYKZ 222300Z 09006KT 12SM FEW010 BKN014 M00/M03 A3009 RMKSF1SC6 SLP199
Loading
Personal Weather Stations






























Interactive Weather Map New forecast layout! Learn more

10-Day Weather Forecast

Advertisements
Track Severe Weather on mobile